createdAt,value
2022-09-15T00:00:03.526Z,966.74
2022-09-15T00:01:03.581Z,966.69
2022-09-15T00:02:03.919Z,966.63
2022-09-15T00:03:03.864Z,966.86
2022-09-15T00:04:03.759Z,966.68
2022-09-15T00:05:02.977Z,966.66
2022-09-15T00:06:02.980Z,966.71
2022-09-15T00:07:02.913Z,966.71
2022-09-15T00:08:02.925Z,966.66
2022-09-15T00:09:03.004Z,966.60
2022-09-15T00:10:03.231Z,966.63
2022-09-15T00:11:03.190Z,966.71
2022-09-15T00:12:03.186Z,966.71
2022-09-15T00:13:03.128Z,966.60
2022-09-15T00:14:03.242Z,966.48
2022-09-15T00:15:03.193Z,966.43
2022-09-15T00:16:03.283Z,966.43
2022-09-15T00:17:03.432Z,966.48
2022-09-15T00:18:03.223Z,966.34
2022-09-15T00:19:03.267Z,966.31
2022-09-15T00:20:03.271Z,966.25
2022-09-15T00:21:03.266Z,966.34
2022-09-15T00:22:03.234Z,966.20
2022-09-15T00:23:03.326Z,966.34
2022-09-15T00:24:03.332Z,966.51
2022-09-15T00:25:03.366Z,966.40
2022-09-15T00:26:03.349Z,966.28
2022-09-15T00:27:03.558Z,966.34
2022-09-15T00:28:03.462Z,966.46
2022-09-15T00:29:03.390Z,966.37
2022-09-15T00:30:03.461Z,966.40
2022-09-15T00:31:03.545Z,966.48
2022-09-15T00:32:03.410Z,966.46
2022-09-15T00:33:03.499Z,966.37
2022-09-15T00:34:03.538Z,966.43
2022-09-15T00:35:03.620Z,966.46
2022-09-15T00:36:03.094Z,966.43
2022-09-15T00:37:03.526Z,966.34
2022-09-15T00:38:03.620Z,966.43
2022-09-15T00:39:03.587Z,966.40
2022-09-15T00:40:03.840Z,966.51
2022-09-15T00:41:03.636Z,966.63
2022-09-15T00:42:03.737Z,966.57
2022-09-15T00:43:03.735Z,966.54
2022-09-15T00:44:03.841Z,966.57
2022-09-15T00:45:03.663Z,966.48
2022-09-15T00:46:03.982Z,966.57
2022-09-15T00:47:19.941Z,966.60
2022-09-15T00:48:03.659Z,966.51
2022-09-15T00:49:03.742Z,966.45
2022-09-15T00:50:03.852Z,966.40
2022-09-15T00:51:03.827Z,966.63
2022-09-15T00:52:02.899Z,966.45
2022-09-15T00:53:03.262Z,966.60
2022-09-15T00:54:03.238Z,966.48
2022-09-15T00:55:03.193Z,966.54
2022-09-15T00:56:03.132Z,966.40
2022-09-15T00:57:03.185Z,966.54
2022-09-15T00:58:04.363Z,966.45
2022-09-15T00:59:03.336Z,966.48
2022-09-15T01:00:03.337Z,966.37
2022-09-15T01:01:03.580Z,966.54
2022-09-15T01:02:03.551Z,966.57
2022-09-15T01:03:03.414Z,966.57
2022-09-15T01:04:03.571Z,966.45
2022-09-15T01:05:03.573Z,966.45
2022-09-15T01:06:03.628Z,966.51
2022-09-15T01:07:03.565Z,966.57
2022-09-15T01:08:03.612Z,966.59
2022-09-15T01:09:03.713Z,966.42
2022-09-15T01:10:03.095Z,966.51
2022-09-15T01:11:03.057Z,966.54
2022-09-15T01:12:03.057Z,966.51
2022-09-15T01:13:02.963Z,966.45
2022-09-15T01:14:02.949Z,966.51
2022-09-15T01:15:02.940Z,966.51
2022-09-15T01:16:03.003Z,966.51
2022-09-15T01:17:03.019Z,966.54
2022-09-15T01:18:02.971Z,966.57
2022-09-15T01:19:03.042Z,966.60
2022-09-15T01:20:03.094Z,966.48
2022-09-15T01:21:05.858Z,966.60
2022-09-15T01:22:03.131Z,966.57
2022-09-15T01:23:03.166Z,966.63
2022-09-15T01:24:03.218Z,966.48
2022-09-15T01:25:03.350Z,966.46
2022-09-15T01:26:03.720Z,966.48
2022-09-15T01:27:40.811Z,966.40
2022-09-15T01:28:03.400Z,966.48
2022-09-15T01:29:04.024Z,966.43
2022-09-15T01:30:03.385Z,966.48
2022-09-15T01:31:03.343Z,966.48
2022-09-15T01:32:03.457Z,966.45
2022-09-15T01:33:03.328Z,966.31
2022-09-15T01:34:03.412Z,966.34
2022-09-15T01:35:03.368Z,966.43
2022-09-15T01:36:03.375Z,966.37
2022-09-15T01:37:03.354Z,966.40
2022-09-15T01:38:03.317Z,966.42
2022-09-15T01:39:03.432Z,966.28
2022-09-15T01:40:03.583Z,966.28
2022-09-15T01:41:03.553Z,966.34
2022-09-15T01:42:03.653Z,966.45
2022-09-15T01:43:03.707Z,966.40
2022-09-15T01:44:03.689Z,966.45
2022-09-15T01:45:03.863Z,966.51
2022-09-15T01:46:04.054Z,966.43
2022-09-15T01:47:03.754Z,966.43
2022-09-15T01:48:03.773Z,966.48
2022-09-15T01:49:03.778Z,966.63
2022-09-15T01:50:03.794Z,966.48
2022-09-15T01:51:03.730Z,966.54
2022-09-15T01:52:03.791Z,966.54
2022-09-15T01:53:02.945Z,966.43
2022-09-15T01:54:02.944Z,966.46
2022-09-15T01:55:02.948Z,966.54
2022-09-15T01:56:02.850Z,966.57
2022-09-15T01:57:03.923Z,966.60
2022-09-15T01:58:03.840Z,966.51
2022-09-15T01:59:02.948Z,966.48
2022-09-15T02:00:03.927Z,966.54
2022-09-15T02:01:04.005Z,966.51
2022-09-15T02:02:03.938Z,966.48
2022-09-15T02:03:03.874Z,966.48
2022-09-15T02:04:03.017Z,966.54
2022-09-15T02:05:03.147Z,966.60
2022-09-15T02:06:03.137Z,966.51
2022-09-15T02:07:03.065Z,966.51
2022-09-15T02:08:03.140Z,966.37
2022-09-15T02:09:03.122Z,966.37
2022-09-15T02:10:03.125Z,966.40
2022-09-15T02:11:03.121Z,966.46
2022-09-15T02:12:03.029Z,966.46
2022-09-15T02:13:02.973Z,966.58
2022-09-15T02:14:03.797Z,966.46
2022-09-15T02:15:03.113Z,966.61
2022-09-15T02:16:03.192Z,966.35
2022-09-15T02:17:03.171Z,966.44
2022-09-15T02:18:03.267Z,966.49
2022-09-15T02:19:03.317Z,966.41
2022-09-15T02:20:03.267Z,966.44
2022-09-15T02:21:03.314Z,966.53
2022-09-15T02:22:03.401Z,966.64
2022-09-15T02:23:03.332Z,966.55
2022-09-15T02:24:03.398Z,966.50
2022-09-15T02:25:03.475Z,966.47
2022-09-15T02:26:03.326Z,966.47
2022-09-15T02:27:03.412Z,966.64
2022-09-15T02:28:03.520Z,966.64
2022-09-15T02:29:03.644Z,966.64
2022-09-15T02:30:03.792Z,966.76
2022-09-15T02:31:03.856Z,966.67
2022-09-15T02:32:07.670Z,966.64
2022-09-15T02:33:03.716Z,966.56
2022-09-15T02:34:03.765Z,966.62
2022-09-15T02:35:03.777Z,966.50
2022-09-15T02:36:03.698Z,966.68
2022-09-15T02:37:03.759Z,966.65
2022-09-15T02:38:03.734Z,966.68
2022-09-15T02:39:03.725Z,966.73
2022-09-15T02:40:03.875Z,966.73
2022-09-15T02:41:03.759Z,966.62
2022-09-15T02:42:03.774Z,966.71
2022-09-15T02:43:03.838Z,966.79
2022-09-15T02:44:03.834Z,966.62
2022-09-15T02:45:03.851Z,966.57
2022-09-15T02:46:03.996Z,966.59
2022-09-15T02:47:03.854Z,966.57
2022-09-15T02:48:03.790Z,966.57
2022-09-15T02:49:02.974Z,966.62
2022-09-15T02:50:02.878Z,966.57
2022-09-15T02:51:03.105Z,966.60
2022-09-15T02:52:03.026Z,966.62
2022-09-15T02:53:03.106Z,966.54
2022-09-15T02:54:03.071Z,966.65
2022-09-15T02:55:03.079Z,966.77
2022-09-15T02:56:03.433Z,966.68
2022-09-15T02:57:03.383Z,966.74
2022-09-15T02:58:03.430Z,966.66
2022-09-15T02:59:03.385Z,966.60
2022-09-15T03:00:03.531Z,966.57
2022-09-15T03:01:03.631Z,966.63
2022-09-15T03:02:03.953Z,966.57
2022-09-15T03:03:03.466Z,966.51
2022-09-15T03:04:03.528Z,966.57
2022-09-15T03:05:03.468Z,966.51
2022-09-15T03:06:03.633Z,966.46
2022-09-15T03:07:03.477Z,966.57
2022-09-15T03:08:03.591Z,966.46
2022-09-15T03:09:03.660Z,966.57
2022-09-15T03:10:03.094Z,966.57
2022-09-15T03:11:03.014Z,966.69
2022-09-15T03:12:03.525Z,966.60
2022-09-15T03:13:03.738Z,966.52
2022-09-15T03:14:03.577Z,966.52
2022-09-15T03:15:03.600Z,966.52
2022-09-15T03:16:03.788Z,966.60
2022-09-15T03:17:03.655Z,966.49
2022-09-15T03:18:03.669Z,966.57
2022-09-15T03:19:03.557Z,966.34
2022-09-15T03:20:03.615Z,966.63
2022-09-15T03:21:03.641Z,966.54
2022-09-15T03:22:03.612Z,966.37
2022-09-15T03:23:03.632Z,966.54
2022-09-15T03:24:03.684Z,966.46
2022-09-15T03:25:03.726Z,966.46
2022-09-15T03:26:02.887Z,966.60
2022-09-15T03:27:03.022Z,966.57
2022-09-15T03:28:03.002Z,966.43
2022-09-15T03:29:03.118Z,966.51
2022-09-15T03:30:03.186Z,966.51
2022-09-15T03:31:03.358Z,966.46
2022-09-15T03:32:03.142Z,966.46
2022-09-15T03:33:03.225Z,966.60
2022-09-15T03:34:03.233Z,966.54
2022-09-15T03:35:03.200Z,966.51
2022-09-15T03:36:03.345Z,966.51
2022-09-15T03:37:03.285Z,966.60
2022-09-15T03:38:04.740Z,966.63
2022-09-15T03:39:03.990Z,966.54
2022-09-15T03:40:03.952Z,966.63
2022-09-15T03:41:03.769Z,966.60
2022-09-15T03:42:03.857Z,966.66
2022-09-15T03:43:03.872Z,966.65
2022-09-15T03:44:03.844Z,966.57
2022-09-15T03:45:02.956Z,966.68
2022-09-15T03:46:03.103Z,966.66
2022-09-15T03:47:03.249Z,966.57
2022-09-15T03:48:03.835Z,966.60
2022-09-15T03:49:03.725Z,966.57
2022-09-15T03:50:03.753Z,966.63
2022-09-15T03:51:03.788Z,966.69
2022-09-15T03:52:03.882Z,966.63
2022-09-15T03:53:02.896Z,966.63
2022-09-15T03:54:02.998Z,966.54
2022-09-15T03:55:02.963Z,966.60
2022-09-15T03:56:02.919Z,966.60
2022-09-15T03:57:02.928Z,966.69
2022-09-15T03:58:03.005Z,966.48
2022-09-15T03:59:02.933Z,966.69
2022-09-15T04:00:03.174Z,966.51
2022-09-15T04:01:03.329Z,966.51
2022-09-15T04:02:03.391Z,966.57
2022-09-15T04:03:03.358Z,966.63
2022-09-15T04:04:03.358Z,966.54
2022-09-15T04:05:03.449Z,966.60
2022-09-15T04:06:03.480Z,966.57
2022-09-15T04:07:03.560Z,966.80
2022-09-15T04:08:03.607Z,966.54
2022-09-15T04:09:03.781Z,966.60
2022-09-15T04:10:03.784Z,966.69
2022-09-15T04:11:03.873Z,966.60
2022-09-15T04:12:03.826Z,966.63
2022-09-15T04:13:02.932Z,966.51
2022-09-15T04:14:02.956Z,966.52
2022-09-15T04:15:03.893Z,966.54
2022-09-15T04:16:03.107Z,966.57
2022-09-15T04:17:03.121Z,966.60
2022-09-15T04:18:03.164Z,966.63
2022-09-15T04:19:03.827Z,966.57
2022-09-15T04:20:03.166Z,966.57
2022-09-15T04:21:03.215Z,966.60
2022-09-15T04:22:03.165Z,966.57
2022-09-15T04:23:03.228Z,966.57
2022-09-15T04:24:03.169Z,966.69
2022-09-15T04:25:03.498Z,966.52
2022-09-15T04:26:03.460Z,966.58
2022-09-15T04:27:03.394Z,966.52
2022-09-15T04:28:03.444Z,966.58
2022-09-15T04:29:05.191Z,966.61
2022-09-15T04:30:03.599Z,966.55
2022-09-15T04:31:03.529Z,966.58
2022-09-15T04:32:03.627Z,966.58
2022-09-15T04:33:03.564Z,966.55
2022-09-15T04:34:03.672Z,966.47
2022-09-15T04:35:03.607Z,966.61
2022-09-15T04:36:03.747Z,966.58
2022-09-15T04:37:03.672Z,966.64
2022-09-15T04:38:03.701Z,966.61
2022-09-15T04:39:03.682Z,966.58
2022-09-15T04:40:03.744Z,966.70
2022-09-15T04:41:03.688Z,966.58
2022-09-15T04:42:03.781Z,966.61
2022-09-15T04:43:03.816Z,966.67
2022-09-15T04:44:03.861Z,966.55
2022-09-15T04:45:02.875Z,966.70
2022-09-15T04:46:02.968Z,966.70
2022-09-15T04:47:03.039Z,966.70
2022-09-15T04:48:02.925Z,966.70
2022-09-15T04:49:03.055Z,966.84
2022-09-15T04:50:03.169Z,966.75
2022-09-15T04:51:03.151Z,966.72
2022-09-15T04:52:09.558Z,966.81
2022-09-15T04:53:03.164Z,966.70
2022-09-15T04:54:03.178Z,966.81
2022-09-15T04:55:03.288Z,966.90
2022-09-15T04:56:03.250Z,966.76
2022-09-15T04:57:03.512Z,966.73
2022-09-15T04:58:03.508Z,966.67
2022-09-15T04:59:04.585Z,966.78
2022-09-15T05:00:03.681Z,966.79
2022-09-15T05:01:03.911Z,966.73
2022-09-15T05:02:03.643Z,966.67
2022-09-15T05:03:03.349Z,966.67
2022-09-15T05:04:03.473Z,966.67
2022-09-15T05:05:03.528Z,966.70
2022-09-15T05:06:03.493Z,966.82
2022-09-15T05:07:03.623Z,966.79
2022-09-15T05:08:03.586Z,966.82
2022-09-15T05:09:10.396Z,966.79
2022-09-15T05:10:03.489Z,966.70
2022-09-15T05:11:03.765Z,966.82
2022-09-15T05:12:03.820Z,966.90
2022-09-15T05:13:03.835Z,966.76
2022-09-15T05:14:03.874Z,966.79
2022-09-15T05:15:03.737Z,966.76
2022-09-15T05:16:03.990Z,966.82
2022-09-15T05:17:03.844Z,966.82
2022-09-15T05:18:03.942Z,966.82
2022-09-15T05:19:02.924Z,966.93
2022-09-15T05:20:03.081Z,967.01
2022-09-15T05:21:03.050Z,966.88
2022-09-15T05:22:03.371Z,966.70
2022-09-15T05:23:03.347Z,966.82
2022-09-15T05:24:03.239Z,966.76
2022-09-15T05:25:03.386Z,966.82
2022-09-15T05:26:03.295Z,966.68
2022-09-15T05:27:03.323Z,966.79
2022-09-15T05:28:03.439Z,966.85
2022-09-15T05:29:03.504Z,966.79
2022-09-15T05:30:38.001Z,966.88
2022-09-15T05:31:03.604Z,966.85
2022-09-15T05:32:03.486Z,966.88
2022-09-15T05:33:03.563Z,966.85
2022-09-15T05:34:03.453Z,966.99
2022-09-15T05:35:03.467Z,966.82
2022-09-15T05:36:03.519Z,966.96
2022-09-15T05:37:03.663Z,966.88
2022-09-15T05:38:03.710Z,966.91
2022-09-15T05:39:03.716Z,966.99
2022-09-15T05:40:08.782Z,967.04
2022-09-15T05:41:03.824Z,967.04
2022-09-15T05:42:02.888Z,966.93
2022-09-15T05:43:02.935Z,967.07
2022-09-15T05:44:03.077Z,967.12
2022-09-15T05:45:03.048Z,966.90
2022-09-15T05:46:03.209Z,967.07
2022-09-15T05:47:03.181Z,966.99
2022-09-15T05:48:03.164Z,967.04
2022-09-15T05:49:03.134Z,967.07
2022-09-15T05:50:03.195Z,967.15
2022-09-15T05:51:03.057Z,967.04
2022-09-15T05:52:03.166Z,966.96
2022-09-15T05:53:03.132Z,967.01
2022-09-15T05:54:03.050Z,967.01
2022-09-15T05:55:03.190Z,966.99
2022-09-15T05:56:03.238Z,967.07
2022-09-15T05:57:03.321Z,967.13
2022-09-15T05:58:03.347Z,967.07
2022-09-15T05:59:03.489Z,967.04
2022-09-15T06:00:03.674Z,967.02
2022-09-15T06:01:03.567Z,967.22
2022-09-15T06:02:03.724Z,967.13
2022-09-15T06:03:03.897Z,967.07
2022-09-15T06:04:03.759Z,967.00
2022-09-15T06:05:03.750Z,967.16
2022-09-15T06:06:03.734Z,967.28
2022-09-15T06:07:03.683Z,967.16
2022-09-15T06:08:03.759Z,967.13
2022-09-15T06:09:04.197Z,967.16
2022-09-15T06:10:03.754Z,967.13
2022-09-15T06:11:03.781Z,967.24
2022-09-15T06:12:03.751Z,967.24
2022-09-15T06:13:03.838Z,967.22
2022-09-15T06:14:03.921Z,967.19
2022-09-15T06:15:03.899Z,967.13
2022-09-15T06:16:03.926Z,967.16
2022-09-15T06:17:03.980Z,967.19
2022-09-15T06:18:02.992Z,967.19
2022-09-15T06:19:03.048Z,967.24
2022-09-15T06:20:03.106Z,967.22
2022-09-15T06:21:03.067Z,967.19
2022-09-15T06:22:03.043Z,967.24
2022-09-15T06:23:03.050Z,967.19
2022-09-15T06:24:03.007Z,967.19
2022-09-15T06:25:03.034Z,967.19
2022-09-15T06:26:02.968Z,967.21
2022-09-15T06:27:02.951Z,967.24
2022-09-15T06:28:03.040Z,967.27
2022-09-15T06:29:03.062Z,967.24
2022-09-15T06:30:03.050Z,967.36
2022-09-15T06:31:02.982Z,967.18
2022-09-15T06:32:04.013Z,967.18
2022-09-15T06:33:03.842Z,967.24
2022-09-15T06:34:02.917Z,967.15
2022-09-15T06:35:02.929Z,967.26
2022-09-15T06:36:03.018Z,967.18
2022-09-15T06:37:02.931Z,967.26
2022-09-15T06:38:03.078Z,967.29
2022-09-15T06:39:02.982Z,967.31
2022-09-15T06:40:03.074Z,967.34
2022-09-15T06:41:02.977Z,967.42
2022-09-15T06:42:05.983Z,967.39
2022-09-15T06:43:03.137Z,967.41
2022-09-15T06:44:03.223Z,967.31
2022-09-15T06:45:03.164Z,967.33
2022-09-15T06:46:03.128Z,967.44
2022-09-15T06:47:03.302Z,967.52
2022-09-15T06:48:25.006Z,967.43
2022-09-15T06:49:03.278Z,967.49
2022-09-15T06:50:03.233Z,967.30
2022-09-15T06:51:03.705Z,967.35
2022-09-15T06:52:03.784Z,967.35
2022-09-15T06:53:03.877Z,967.40
2022-09-15T06:54:02.930Z,967.45
2022-09-15T06:55:03.035Z,967.45
2022-09-15T06:56:03.114Z,967.45
2022-09-15T06:57:03.156Z,967.48
2022-09-15T06:58:03.264Z,967.47
2022-09-15T06:59:03.174Z,967.55
2022-09-15T07:00:03.238Z,967.52
2022-09-15T07:01:03.206Z,967.45
2022-09-15T07:02:05.888Z,967.51
2022-09-15T07:03:03.434Z,967.59
2022-09-15T07:04:03.237Z,967.61
2022-09-15T07:05:03.369Z,967.55
2022-09-15T07:06:03.269Z,967.63
2022-09-15T07:07:03.254Z,967.55
2022-09-15T07:08:03.319Z,967.57
2022-09-15T07:09:03.157Z,967.63
2022-09-15T07:10:03.339Z,967.63
2022-09-15T07:11:03.325Z,967.75
2022-09-15T07:12:03.429Z,967.66
2022-09-15T07:13:03.480Z,967.72
2022-09-15T07:14:03.460Z,967.72
2022-09-15T07:15:03.562Z,967.75
2022-09-15T07:16:03.673Z,967.81
2022-09-15T07:17:03.675Z,967.78
2022-09-15T07:18:03.770Z,967.64
2022-09-15T07:19:02.902Z,967.79
2022-09-15T07:20:02.983Z,967.87
2022-09-15T07:21:02.937Z,967.87
2022-09-15T07:22:03.867Z,967.82
2022-09-15T07:23:03.055Z,967.73
2022-09-15T07:24:07.671Z,967.91
2022-09-15T07:25:03.200Z,967.88
2022-09-15T07:26:03.168Z,967.88
2022-09-15T07:27:03.170Z,967.99
2022-09-15T07:28:03.194Z,967.91
2022-09-15T07:29:03.172Z,967.91
2022-09-15T07:30:03.230Z,968.02
2022-09-15T07:31:03.225Z,967.94
2022-09-15T07:32:03.476Z,968.00
2022-09-15T07:33:03.535Z,968.05
2022-09-15T07:34:03.423Z,968.05
2022-09-15T07:35:03.395Z,968.14
2022-09-15T07:36:03.487Z,968.11
2022-09-15T07:37:03.356Z,968.20
2022-09-15T07:38:03.352Z,968.00
2022-09-15T07:39:03.205Z,968.11
2022-09-15T07:40:03.408Z,968.11
2022-09-15T07:41:03.343Z,968.02
2022-09-15T07:42:03.218Z,968.02
2022-09-15T07:43:03.252Z,968.05
2022-09-15T07:44:03.166Z,968.14
2022-09-15T07:45:03.153Z,968.23
2022-09-15T07:46:03.409Z,968.23
2022-09-15T07:47:03.327Z,968.03
2022-09-15T07:48:03.280Z,968.26
2022-09-15T07:49:03.617Z,968.11
2022-09-15T07:50:03.187Z,968.14
2022-09-15T07:51:03.153Z,968.14
2022-09-15T07:52:03.255Z,968.14
2022-09-15T07:53:03.292Z,968.14
2022-09-15T07:54:03.353Z,968.11
2022-09-15T07:55:03.354Z,968.08
2022-09-15T07:56:03.331Z,968.23
2022-09-15T07:57:03.466Z,968.17
2022-09-15T07:58:03.435Z,968.26
2022-09-15T07:59:03.510Z,968.17
2022-09-15T08:00:03.521Z,968.31
2022-09-15T08:01:03.666Z,968.29
2022-09-15T08:02:03.638Z,968.32
2022-09-15T08:03:03.457Z,968.26
2022-09-15T08:04:03.498Z,968.34
2022-09-15T08:05:03.529Z,968.23
2022-09-15T08:06:03.427Z,968.34
2022-09-15T08:07:03.486Z,968.40
2022-09-15T08:08:03.629Z,968.34
2022-09-15T08:09:04.053Z,968.52
2022-09-15T08:10:03.684Z,968.40
2022-09-15T08:11:03.607Z,968.32
2022-09-15T08:12:03.651Z,968.26
2022-09-15T08:13:03.762Z,968.40
2022-09-15T08:14:03.700Z,968.40
2022-09-15T08:15:03.744Z,968.46
2022-09-15T08:16:03.886Z,968.49
2022-09-15T08:17:11.335Z,968.43
2022-09-15T08:18:03.889Z,968.44
2022-09-15T08:19:02.964Z,968.55
2022-09-15T08:20:02.910Z,968.64
2022-09-15T08:21:03.861Z,968.49
2022-09-15T08:22:03.956Z,968.49
2022-09-15T08:23:03.980Z,968.44
2022-09-15T08:24:03.880Z,968.49
2022-09-15T08:25:03.892Z,968.55
2022-09-15T08:26:03.869Z,968.49
2022-09-15T08:27:03.891Z,968.55
2022-09-15T08:28:03.500Z,968.49
2022-09-15T08:29:03.479Z,968.64
2022-09-15T08:30:03.513Z,968.61
2022-09-15T08:31:03.644Z,968.61
2022-09-15T08:32:03.527Z,968.49
2022-09-15T08:33:03.598Z,968.61
2022-09-15T08:34:03.736Z,968.61
2022-09-15T08:35:02.967Z,968.66
2022-09-15T08:36:02.924Z,968.55
2022-09-15T08:37:03.049Z,968.55
2022-09-15T08:38:03.218Z,968.69
2022-09-15T08:39:03.202Z,968.52
2022-09-15T08:40:03.250Z,968.52
2022-09-15T08:41:03.042Z,968.57
2022-09-15T08:42:02.960Z,968.66
2022-09-15T08:43:03.040Z,968.69
2022-09-15T08:44:03.100Z,968.69
2022-09-15T08:45:03.132Z,968.66
2022-09-15T08:46:03.229Z,968.68
2022-09-15T08:47:03.246Z,968.71
2022-09-15T08:48:03.059Z,968.73
2022-09-15T08:49:03.653Z,968.71
2022-09-15T08:50:03.213Z,968.84
2022-09-15T08:51:03.339Z,968.73
2022-09-15T08:52:03.349Z,968.82
2022-09-15T08:53:03.295Z,968.84
2022-09-15T08:54:03.385Z,968.93
2022-09-15T08:55:03.240Z,968.71
2022-09-15T08:56:08.212Z,968.96
2022-09-15T08:57:03.262Z,968.93
2022-09-15T08:58:03.255Z,968.79
2022-09-15T08:59:03.405Z,968.90
2022-09-15T09:00:03.389Z,968.85
2022-09-15T09:01:03.522Z,968.82
2022-09-15T09:02:03.611Z,968.85
2022-09-15T09:03:03.664Z,968.90
2022-09-15T09:04:03.531Z,968.93
2022-09-15T09:05:03.714Z,968.88
2022-09-15T09:06:03.789Z,968.73
2022-09-15T09:07:03.709Z,968.91
2022-09-15T09:08:03.761Z,968.85
2022-09-15T09:09:03.858Z,968.82
2022-09-15T09:10:03.821Z,968.71
2022-09-15T09:11:03.879Z,968.82
2022-09-15T09:12:02.926Z,968.88
2022-09-15T09:13:03.026Z,968.97
2022-09-15T09:14:03.008Z,968.74
2022-09-15T09:15:03.876Z,968.88
2022-09-15T09:16:03.050Z,968.69
2022-09-15T09:17:02.976Z,968.82
2022-09-15T09:18:02.959Z,968.82
2022-09-15T09:19:03.083Z,968.85
2022-09-15T09:20:03.169Z,968.79
2022-09-15T09:21:03.245Z,968.84
2022-09-15T09:22:03.189Z,968.84
2022-09-15T09:23:03.621Z,968.78
2022-09-15T09:24:03.492Z,968.83
2022-09-15T09:25:26.471Z,968.77
2022-09-15T09:26:10.499Z,968.85
2022-09-15T09:27:03.384Z,968.79
2022-09-15T09:28:03.432Z,968.65
2022-09-15T09:29:03.407Z,968.75
2022-09-15T09:30:03.568Z,968.86
2022-09-15T09:31:03.604Z,968.74
2022-09-15T09:32:03.729Z,968.69
2022-09-15T09:33:03.158Z,968.77
2022-09-15T09:34:03.115Z,968.91
2022-09-15T09:35:03.207Z,968.83
2022-09-15T09:36:03.175Z,968.91
2022-09-15T09:37:03.142Z,968.97
2022-09-15T09:38:03.152Z,968.94
2022-09-15T09:39:03.250Z,969.00
2022-09-15T09:40:03.330Z,969.03
2022-09-15T09:41:03.423Z,969.03
2022-09-15T09:42:03.314Z,969.12
2022-09-15T09:43:03.251Z,969.06
2022-09-15T09:44:03.207Z,969.01
2022-09-15T09:45:03.124Z,969.04
2022-09-15T09:46:03.274Z,969.06
2022-09-15T09:47:03.203Z,968.94
2022-09-15T09:48:03.232Z,969.03
2022-09-15T09:49:03.263Z,968.91
2022-09-15T09:50:03.303Z,968.96
2022-09-15T09:51:03.284Z,969.10
2022-09-15T09:52:03.325Z,969.07
2022-09-15T09:53:03.421Z,969.01
2022-09-15T09:54:03.269Z,968.89
2022-09-15T09:55:03.230Z,969.01
2022-09-15T09:56:03.250Z,969.01
2022-09-15T09:57:03.318Z,968.98
2022-09-15T09:58:03.408Z,968.97
2022-09-15T09:59:03.442Z,968.92
2022-09-15T10:00:03.437Z,969.06
2022-09-15T10:01:03.537Z,968.91
2022-09-15T10:02:03.397Z,969.06
2022-09-15T10:03:03.311Z,969.09
2022-09-15T10:04:03.408Z,968.91
2022-09-15T10:05:03.621Z,969.17
2022-09-15T10:06:03.329Z,969.05
2022-09-15T10:07:03.451Z,969.00
2022-09-15T10:08:03.392Z,969.11
2022-09-15T10:09:03.383Z,969.03
2022-09-15T10:10:03.379Z,968.97
2022-09-15T10:11:03.393Z,968.97
2022-09-15T10:12:03.372Z,969.05
2022-09-15T10:13:03.441Z,969.05
2022-09-15T10:14:03.422Z,968.99
2022-09-15T10:15:03.544Z,968.91
2022-09-15T10:16:03.528Z,969.14
2022-09-15T10:17:03.672Z,969.08
2022-09-15T10:18:03.537Z,969.08
2022-09-15T10:19:03.664Z,969.05
2022-09-15T10:20:03.753Z,969.08
2022-09-15T10:21:03.777Z,969.13
2022-09-15T10:22:03.869Z,969.16
2022-09-15T10:23:03.004Z,969.30
2022-09-15T10:24:02.916Z,969.22
2022-09-15T10:25:03.051Z,969.22
2022-09-15T10:26:03.100Z,969.19
2022-09-15T10:27:03.146Z,969.16
2022-09-15T10:28:03.225Z,969.13
2022-09-15T10:29:03.260Z,969.10
2022-09-15T10:30:03.323Z,969.33
2022-09-15T10:31:03.170Z,969.19
2022-09-15T10:32:03.515Z,969.19
2022-09-15T10:33:03.273Z,969.22
2022-09-15T10:34:03.271Z,969.30
2022-09-15T10:35:03.218Z,969.19
2022-09-15T10:36:03.188Z,969.16
2022-09-15T10:37:03.189Z,969.19
2022-09-15T10:38:03.125Z,969.22
2022-09-15T10:39:03.079Z,969.33
2022-09-15T10:40:03.265Z,969.33
2022-09-15T10:41:03.223Z,969.33
2022-09-15T10:42:03.195Z,969.36
2022-09-15T10:43:03.236Z,969.27
2022-09-15T10:44:03.106Z,969.15
2022-09-15T10:45:03.017Z,969.21
2022-09-15T10:46:03.285Z,969.24
2022-09-15T10:47:03.179Z,969.21
2022-09-15T10:48:03.333Z,969.32
2022-09-15T10:49:03.307Z,969.26
2022-09-15T10:50:03.260Z,969.23
2022-09-15T10:51:03.271Z,969.20
2022-09-15T10:52:03.254Z,969.35
2022-09-15T10:53:03.380Z,969.40
2022-09-15T10:54:03.357Z,969.32
2022-09-15T10:55:03.394Z,969.32
2022-09-15T10:56:03.445Z,969.37
2022-09-15T10:57:03.493Z,969.40
2022-09-15T10:58:03.370Z,969.40
2022-09-15T10:59:03.424Z,969.38
2022-09-15T11:00:03.346Z,969.29
2022-09-15T11:01:03.717Z,969.49
2022-09-15T11:02:03.598Z,969.43
2022-09-15T11:03:02.986Z,969.43
2022-09-15T11:04:03.099Z,969.46
2022-09-15T11:05:03.536Z,969.49
2022-09-15T11:06:03.036Z,969.49
2022-09-15T11:07:03.220Z,969.49
2022-09-15T11:08:03.226Z,969.37
2022-09-15T11:09:03.284Z,969.45
2022-09-15T11:10:03.363Z,969.60
2022-09-15T11:11:03.345Z,969.40
2022-09-15T11:12:03.327Z,969.51
2022-09-15T11:13:03.409Z,969.45
2022-09-15T11:14:03.359Z,969.37
2022-09-15T11:15:03.451Z,969.39
2022-09-15T11:16:03.593Z,969.39
2022-09-15T11:17:03.540Z,969.36
2022-09-15T11:18:03.520Z,969.36
2022-09-15T11:19:03.682Z,969.33
2022-09-15T11:20:03.676Z,969.33
2022-09-15T11:21:03.629Z,969.36
2022-09-15T11:22:03.634Z,969.36
2022-09-15T11:23:03.550Z,969.44
2022-09-15T11:24:03.543Z,969.33
2022-09-15T11:25:03.472Z,969.41
2022-09-15T11:26:03.610Z,969.27
2022-09-15T11:27:03.506Z,969.38
2022-09-15T11:28:03.591Z,969.35
2022-09-15T11:29:03.434Z,969.38
2022-09-15T11:30:03.607Z,969.41
2022-09-15T11:31:03.576Z,969.41
2022-09-15T11:32:03.615Z,969.38
2022-09-15T11:33:03.731Z,969.43
2022-09-15T11:34:03.713Z,969.40
2022-09-15T11:35:03.717Z,969.43
2022-09-15T11:36:03.652Z,969.49
2022-09-15T11:37:03.576Z,969.60
2022-09-15T11:38:03.676Z,969.43
2022-09-15T11:39:03.701Z,969.43
2022-09-15T11:40:03.955Z,969.57
2022-09-15T11:41:03.869Z,969.49
2022-09-15T11:42:03.843Z,969.49
2022-09-15T11:43:03.847Z,969.52
2022-09-15T11:44:02.968Z,969.55
2022-09-15T11:45:02.931Z,969.52
2022-09-15T11:46:03.053Z,969.50
2022-09-15T11:47:03.034Z,969.73
2022-09-15T11:48:03.187Z,969.62
2022-09-15T11:49:03.029Z,969.65
2022-09-15T11:50:03.068Z,969.56
2022-09-15T11:51:03.191Z,969.56
2022-09-15T11:52:03.164Z,969.56
2022-09-15T11:53:03.150Z,969.62
2022-09-15T11:54:03.107Z,969.59
2022-09-15T11:55:03.197Z,969.65
2022-09-15T11:56:03.188Z,969.62
2022-09-15T11:57:03.251Z,969.59
2022-09-15T11:58:03.200Z,969.44
2022-09-15T11:59:03.352Z,969.56
2022-09-15T12:00:03.328Z,969.47
2022-09-15T12:01:03.288Z,969.53
2022-09-15T12:02:03.392Z,969.41
2022-09-15T12:03:03.737Z,969.47
2022-09-15T12:04:03.310Z,969.47
2022-09-15T12:05:03.356Z,969.52
2022-09-15T12:06:03.282Z,969.38
2022-09-15T12:07:03.382Z,969.41
2022-09-15T12:08:03.273Z,969.41
2022-09-15T12:09:03.266Z,969.49
2022-09-15T12:10:03.301Z,969.38
2022-09-15T12:11:03.247Z,969.49
2022-09-15T12:12:03.390Z,969.41
2022-09-15T12:13:03.372Z,969.41
2022-09-15T12:14:03.316Z,969.47
2022-09-15T12:15:03.456Z,969.47
2022-09-15T12:16:03.509Z,969.47
2022-09-15T12:17:03.622Z,969.55
2022-09-15T12:18:27.612Z,969.47
2022-09-15T12:19:03.466Z,969.50
2022-09-15T12:20:03.478Z,969.47
2022-09-15T12:21:03.447Z,969.47
2022-09-15T12:22:03.400Z,969.41
2022-09-15T12:23:03.437Z,969.44
2022-09-15T12:24:03.339Z,969.38
2022-09-15T12:25:03.469Z,969.47
2022-09-15T12:26:03.425Z,969.38
2022-09-15T12:27:03.523Z,969.32
2022-09-15T12:28:03.486Z,969.38